Airfield :
LOGIN :

Register | Disclaimer

   EN    FR    IT 

 










Legend :    VFR   Marginal VFR   IFR   Intensive IFR   Very Intensive IFR
Visi :
Ceiling :
>= 8 km
>= 3000ft
5 to 8 km
1000 to 3000 ft
1500m to 5 km
500 to 1000 ft
800 to 1500m
200 to 500 ft
< 800m
< 200 ft
Symbols :   Thunderstorms  Fog  Heavy snow  Heavy precipitations  Wind > 20 kt
SIGMETs :     Misc.  Thunderstorms  Icing  Turbulence  Mountain Waves  Volcanic Ashes







- Airport Elevation : 22 ft
- IATA code : LDY
- Download approach charts


EGAE - Londonderry Eglington

CURRENT METAR :
  • 222050Z 24014KT 220V330 9999 FEW025 06/02 Q1025

EXPIRED METARs :
  • 222020Z 24014KT 9999 FEW020 07/03 Q1024
  • 221950Z 24013KT 9999 FEW017 SCT030 06/03 Q1024
  • 221920Z 24016KT 9999 FEW020 SCT033 06/03 Q1023
  • 221850Z 25019G29KT 9999 FEW020 SCT032 07/04 Q1023 RESHRA
  • 221820Z 25017KT 9999 FEW030 08/03 Q1022
  • 221750Z 26021G32KT 9999 FEW025 SCT034 08/03 Q1022 RESHRA

TAF TAF EGAE
Valid from the 22 at 18:00 until the 22 at 22:00 UTC


221704Z 2218/2222 25013KT 9999 FEW030
No reported NOTAMs for that airfield.
1 SIGMET reported for the Scottish FIR (EGPX) :
 
Severe turbulence
EGPX SIGMET 09 VALID 221900/222300 EGRR
EGPX SCOTTISH FIR SEV TURB FCST N OF LINE N5827 E00235 - N5702 W01000 SFC/FL060 STNR NC=



MET'MAP, your aeronautical weather chart ! - Copyright ORBIFLY December 2007 - Disclaimer

ORBIFLY MET'MAP TEAM :

Programming & Development : Alexandra Zaïnal
Concept & Development : Baudouin d'Aumeries
Co-Development & Prog : Marc-Olivier Méhu
Technical & hardware support : Manuel Goepfert

Contact : metmap@orbifly.com




SOURCES & CREDITS :

   NOAA